Time;durP1;ratioP1;P1;durP2;ratioP2;P2;SDS_P1;SDS_P2;PMS_P1;PMS_P2;Temp;Humidity;BMP_temperature;BMP_pressure;BME280_temperature;BME280_humidity;BME280_pressure;Samples;Min_cycle;Max_cycle;Signal;HPM_P1;HPM_P2
2024/04/01 00:01:37;;;;;;;1.50;1.00;;;11.50;98.20;;;;;;4891152;29;20727;-82
2024/04/01 00:04:03;;;;;;;1.50;1.10;;;11.50;98.20;;;;;;4891281;29;20216;-83
2024/04/01 00:06:30;;;;;;;1.50;1.17;;;11.50;98.20;;;;;;4886414;29;20490;-82
2024/04/01 00:08:57;;;;;;;1.50;1.10;;;11.50;98.20;;;;;;4897343;29;20788;-82
2024/04/01 00:11:24;;;;;;;1.50;1.10;;;11.50;98.20;;;;;;4887766;29;21112;-82
2024/04/01 00:13:50;;;;;;;1.50;1.10;;;11.50;98.20;;;;;;4905287;29;20481;-82
2024/04/01 00:16:17;;;;;;;1.50;1.00;;;11.50;98.20;;;;;;4888054;29;20486;-82
2024/04/01 00:18:42;;;;;;;1.50;1.00;;;11.50;98.20;;;;;;4899018;29;20229;-81
2024/04/01 00:21:09;;;;;;;1.50;1.00;;;11.50;98.20;;;;;;4878463;29;20600;-82
2024/04/01 00:23:36;;;;;;;1.50;1.00;;;11.50;98.20;;;;;;4897303;29;20222;-78
2024/04/01 00:26:04;;;;;;;1.50;1.20;;;11.50;98.20;;;;;;4870734;29;20509;-81
2024/04/01 00:28:31;;;;;;;1.50;1.00;;;11.50;98.20;;;;;;4900329;29;20576;-80
2024/04/01 00:30:58;;;;;;;1.50;1.00;;;11.60;98.20;;;;;;4874007;29;20569;-83
2024/04/01 00:33:24;;;;;;;1.50;1.00;;;11.60;98.20;;;;;;4904253;29;20474;-83
2024/04/01 00:35:50;;;;;;;1.50;1.07;;;11.60;98.20;;;;;;4874653;29;20474;-80
2024/04/01 00:38:16;;;;;;;1.50;1.10;;;11.60;98.20;;;;;;4885218;29;20234;-80
2024/04/01 00:40:43;;;;;;;1.50;1.00;;;11.70;98.20;;;;;;4887697;29;20839;-80
2024/04/01 00:43:11;;;;;;;1.50;1.10;;;11.70;98.20;;;;;;4893244;29;20234;-80
2024/04/01 00:45:41;;;;;;;1.50;1.00;;;11.80;98.20;;;;;;4883604;29;20478;-79
2024/04/01 00:48:08;;;;;;;1.50;1.10;;;11.80;98.20;;;;;;4892380;29;20514;-79
2024/04/01 00:50:37;;;;;;;1.50;1.10;;;11.80;98.20;;;;;;4883951;29;20473;-80
2024/04/01 00:53:04;;;;;;;1.50;1.10;;;11.80;98.20;;;;;;4892185;29;20492;-80
2024/04/01 00:55:33;;;;;;;1.50;1.10;;;11.90;98.20;;;;;;4884686;29;20512;-79
2024/04/01 00:58:00;;;;;;;1.50;1.10;;;11.90;98.20;;;;;;4888560;29;20494;-80
2024/04/01 01:00:29;;;;;;;1.50;1.10;;;11.90;98.20;;;;;;4885418;29;20476;-80
2024/04/01 01:02:56;;;;;;;1.50;1.00;;;11.90;98.20;;;;;;4895458;29;20500;-81
2024/04/01 01:05:23;;;;;;;1.50;1.10;;;11.90;98.20;;;;;;4869098;29;20506;-81
2024/04/01 01:07:50;;;;;;;1.50;1.10;;;11.90;98.20;;;;;;4896458;29;20505;-82
2024/04/01 01:10:17;;;;;;;1.50;1.10;;;11.90;98.20;;;;;;4873175;29;20504;-81
2024/04/01 01:12:43;;;;;;;1.47;1.00;;;11.90;98.20;;;;;;4895034;29;20484;-82
2024/04/01 01:15:10;;;;;;;1.50;1.10;;;11.80;98.20;;;;;;4876529;29;20493;-82
2024/04/01 01:17:38;;;;;;;1.50;1.10;;;11.80;98.20;;;;;;4894495;29;20671;-81
2024/04/01 01:20:11;;;;;;;1.50;1.10;;;11.80;98.20;;;;;;4874372;29;20569;-81
2024/04/01 01:22:38;;;;;;;1.50;1.10;;;11.80;98.20;;;;;;4891959;29;20496;-81
2024/04/01 01:25:07;;;;;;;1.50;1.00;;;11.70;98.20;;;;;;4874396;29;20986;-81
2024/04/01 01:27:33;;;;;;;1.50;1.00;;;11.70;98.20;;;;;;4894729;29;20802;-81
2024/04/01 01:29:59;;;;;;;1.50;1.10;;;11.70;98.20;;;;;;4875452;29;20474;-81
2024/04/01 01:32:25;;;;;;;1.50;1.10;;;11.70;98.20;;;;;;4888557;29;20576;-81
2024/04/01 01:34:53;;;;;;;1.50;1.10;;;11.70;98.20;;;;;;4878465;29;20470;-81
2024/04/01 01:37:19;;;;;;;1.50;1.10;;;11.70;98.20;;;;;;4891600;29;20243;-81
2024/04/01 01:39:47;;;;;;;1.50;1.00;;;11.60;98.20;;;;;;4880497;29;20467;-82
2024/04/01 01:42:13;;;;;;;1.50;1.10;;;11.60;98.20;;;;;;4887242;29;20867;-81
2024/04/01 01:44:39;;;;;;;1.50;1.10;;;11.60;98.20;;;;;;4880246;29;20562;-81
2024/04/01 01:47:05;;;;;;;1.47;1.10;;;11.60;98.20;;;;;;4886459;29;20232;-81
2024/04/01 01:49:32;;;;;;;1.50;1.10;;;11.60;98.20;;;;;;4881073;29;20482;-80
2024/04/01 01:51:58;;;;;;;1.50;1.20;;;11.60;98.20;;;;;;4885563;29;20240;-81
2024/04/01 01:54:25;;;;;;;1.50;1.10;;;11.60;98.20;;;;;;4887162;29;20473;-84
2024/04/01 01:56:52;;;;;;;1.50;1.00;;;11.60;98.20;;;;;;4883242;29;20308;-81
2024/04/01 01:59:18;;;;;;;1.47;1.00;;;11.60;98.20;;;;;;4892559;29;20512;-82
2024/04/01 02:01:44;;;;;;;1.50;1.10;;;11.60;98.20;;;;;;4884792;29;20484;-79
2024/04/01 02:04:11;;;;;;;1.50;1.00;;;11.60;98.20;;;;;;4891610;29;20474;-82
2024/04/01 02:06:37;;;;;;;1.50;1.10;;;11.60;98.20;;;;;;4882586;29;20236;-82
2024/04/01 02:09:03;;;;;;;1.50;1.10;;;11.60;98.20;;;;;;4893317;29;21147;-79
2024/04/01 02:11:30;;;;;;;1.50;1.10;;;11.60;98.20;;;;;;4880721;29;20723;-79
2024/04/01 02:13:58;;;;;;;1.50;1.00;;;11.60;98.20;;;;;;4895310;29;20562;-81
2024/04/01 02:16:23;;;;;;;1.50;1.00;;;11.60;98.20;;;;;;4879859;29;20341;-81
2024/04/01 02:18:50;;;;;;;1.47;1.10;;;11.60;98.20;;;;;;4897202;29;20498;-81
2024/04/01 02:21:18;;;;;;;2.70;2.50;;;11.60;98.20;;;;;;4879731;29;20243;-81
2024/04/01 02:23:45;;;;;;;1.50;1.00;;;11.50;98.20;;;;;;4905161;29;20769;-81
2024/04/01 02:26:10;;;;;;;1.50;1.10;;;11.50;98.20;;;;;;4875401;29;20488;-81
2024/04/01 02:28:37;;;;;;;1.43;1.00;;;11.50;98.20;;;;;;4899326;29;20494;-81
2024/04/01 02:31:04;;;;;;;1.47;1.00;;;11.50;98.20;;;;;;4872832;29;20217;-82
2024/04/01 02:33:31;;;;;;;1.50;1.30;;;11.50;98.20;;;;;;4894020;29;20481;-82
2024/04/01 02:35:57;;;;;;;1.50;1.10;;;11.40;98.20;;;;;;4878018;29;20490;-82
2024/04/01 02:38:24;;;;;;;1.50;1.10;;;11.40;98.20;;;;;;4910531;29;20490;-82
2024/04/01 02:40:50;;;;;;;1.50;1.10;;;11.40;98.20;;;;;;4876361;29;20228;-82
2024/04/01 02:43:16;;;;;;;1.50;1.00;;;11.40;98.20;;;;;;4913525;29;20861;-82
2024/04/01 02:45:42;;;;;;;1.50;1.00;;;11.40;98.20;;;;;;4881342;29;20239;-82
2024/04/01 02:48:10;;;;;;;1.50;1.10;;;11.40;98.20;;;;;;4901148;29;20497;-81
2024/04/01 02:50:36;;;;;;;1.50;1.10;;;11.40;98.20;;;;;;4879395;29;20218;-82
2024/04/01 02:53:03;;;;;;;1.50;1.20;;;11.40;98.20;;;;;;4905238;29;20491;-82
2024/04/01 02:55:29;;;;;;;1.50;1.10;;;11.30;98.20;;;;;;4881033;29;20220;-84
2024/04/01 02:57:56;;;;;;;1.50;1.10;;;11.30;98.20;;;;;;4904250;29;20890;-84
2024/04/01 03:00:22;;;;;;;1.50;1.10;;;11.30;98.20;;;;;;4882474;29;20992;-84
2024/04/01 03:02:50;;;;;;;1.50;1.00;;;11.30;98.20;;;;;;4906764;29;20495;-83
2024/04/01 03:05:18;;;;;;;1.50;1.00;;;11.20;98.20;;;;;;4880893;29;20586;-84
2024/04/01 03:07:46;;;;;;;1.50;1.10;;;11.20;98.20;;;;;;4901568;29;20501;-84
2024/04/01 03:10:12;;;;;;;1.50;1.00;;;11.20;98.20;;;;;;4881838;29;20990;-83
2024/04/01 03:12:39;;;;;;;1.50;1.00;;;11.20;98.20;;;;;;4901480;29;20526;-83
2024/04/01 03:15:06;;;;;;;1.50;1.10;;;11.20;98.20;;;;;;4883922;29;20475;-83
2024/04/01 03:17:33;;;;;;;1.50;1.10;;;11.10;98.20;;;;;;4897778;29;20567;-83
2024/04/01 03:19:59;;;;;;;1.50;1.10;;;11.10;98.20;;;;;;5186634;23;20471;-83
2024/04/01 03:22:28;;;;;;;1.50;1.10;;;11.00;98.20;;;;;;4886794;29;20763;-82
2024/04/01 03:24:53;;;;;;;1.50;1.00;;;11.00;98.20;;;;;;4891747;29;20965;-84
2024/04/01 03:27:22;;;;;;;1.50;1.10;;;11.00;98.20;;;;;;4892932;29;20480;-84
2024/04/01 03:29:48;;;;;;;1.50;1.10;;;11.00;98.20;;;;;;4903397;29;20241;-84
2024/04/01 03:32:16;;;;;;;1.50;1.00;;;10.90;98.20;;;;;;4891746;29;20481;-84
2024/04/01 03:34:46;;;;;;;1.50;1.07;;;10.90;98.20;;;;;;4899654;29;20482;-82
2024/04/01 03:37:16;;;;;;;1.50;1.10;;;10.90;98.20;;;;;;4913180;23;20531;-83
2024/04/01 03:39:48;;;;;;;1.50;1.00;;;10.90;98.20;;;;;;4915308;29;20480;-84
2024/04/01 03:42:15;;;;;;;1.50;1.10;;;10.80;98.20;;;;;;4907617;29;20528;-83
2024/04/01 03:44:42;;;;;;;1.50;1.10;;;10.80;98.20;;;;;;4916811;29;20918;-83
2024/04/01 03:47:10;;;;;;;1.50;1.10;;;10.80;98.20;;;;;;4904771;29;20491;-84
2024/04/01 03:49:40;;;;;;;1.50;1.10;;;10.70;98.20;;;;;;4911819;29;20560;-83
2024/04/01 03:52:06;;;;;;;1.50;1.10;;;10.70;98.20;;;;;;4891012;29;20486;-84
2024/04/01 03:54:34;;;;;;;1.50;1.10;;;10.60;98.20;;;;;;4910035;29;20531;-84
2024/04/01 03:57:01;;;;;;;1.50;1.10;;;10.60;98.20;;;;;;4902207;29;20368;-83
2024/04/01 03:59:28;;;;;;;1.50;1.10;;;10.60;98.20;;;;;;4915913;29;20496;-84
2024/04/01 04:01:54;;;;;;;1.50;1.00;;;10.60;98.20;;;;;;4906622;29;20527;-83
2024/04/01 04:04:21;;;;;;;1.50;1.20;;;10.60;98.20;;;;;;4915153;29;20472;-84
2024/04/01 04:06:47;;;;;;;1.50;1.10;;;10.60;98.20;;;;;;4904919;29;20286;-83
2024/04/01 04:09:17;;;;;;;1.50;1.10;;;10.50;98.20;;;;;;4915083;29;20464;-83
2024/04/01 04:11:49;;;;;;;1.50;1.10;;;10.50;98.20;;;;;;4908782;29;20485;-83
2024/04/01 04:14:23;;;;;;;1.50;1.10;;;10.50;98.20;;;;;;4914377;29;20464;-84
2024/04/01 04:16:49;;;;;;;1.50;1.10;;;10.50;98.20;;;;;;4897597;29;20493;-83
2024/04/01 04:19:17;;;;;;;1.50;1.10;;;10.50;98.20;;;;;;4914283;29;20912;-84
2024/04/01 04:21:57;;;;;;;1.50;1.10;;;10.50;98.20;;;;;;4899159;29;20497;-83
2024/04/01 04:24:40;;;;;;;1.50;1.10;;;10.50;98.20;;;;;;4915108;29;20523;-84
2024/04/01 04:27:07;;;;;;;1.50;1.10;;;10.50;98.20;;;;;;4902872;29;20487;-83
2024/04/01 04:29:35;;;;;;;1.50;1.10;;;10.50;98.20;;;;;;4921439;29;20476;-84
2024/04/01 04:32:09;;;;;;;1.50;1.10;;;10.50;98.20;;;;;;4908890;29;20484;-84
2024/04/01 04:34:41;;;;;;;1.50;1.10;;;10.60;98.20;;;;;;4914689;29;20482;-84
2024/04/01 04:37:07;;;;;;;1.50;1.10;;;10.60;98.20;;;;;;4900604;29;20515;-84
2024/04/01 04:39:34;;;;;;;1.50;1.10;;;10.60;98.20;;;;;;4909153;29;20895;-84
2024/04/01 04:42:00;;;;;;;1.50;1.10;;;10.60;98.20;;;;;;4895360;29;20489;-84
2024/04/01 04:44:27;;;;;;;1.50;1.10;;;10.70;98.20;;;;;;4909903;29;20540;-85
2024/04/01 04:46:58;;;;;;;1.50;1.10;;;10.70;98.20;;;;;;4902368;29;20635;-84
2024/04/01 04:49:24;;;;;;;1.50;1.20;;;10.70;98.20;;;;;;4914455;29;20470;-84
2024/04/01 04:51:51;;;;;;;1.50;1.10;;;10.70;98.20;;;;;;4900961;29;20486;-84
2024/04/01 04:54:30;;;;;;;1.50;1.00;;;10.70;98.20;;;;;;4905381;29;20464;-84
2024/04/01 04:56:56;;;;;;;1.50;1.10;;;10.70;98.20;;;;;;4898049;29;20559;-84
2024/04/01 04:59:22;;;;;;;1.50;1.10;;;10.70;98.20;;;;;;4900757;29;20471;-84
2024/04/01 05:01:51;;;;;;;1.50;1.00;;;10.70;98.20;;;;;;4899650;29;20571;-84
2024/04/01 05:04:35;;;;;;;1.50;1.10;;;10.70;98.20;;;;;;4910201;29;20248;-85
2024/04/01 05:07:02;;;;;;;1.50;1.10;;;10.70;98.20;;;;;;4877334;29;20532;-85
2024/04/01 05:09:28;;;;;;;1.50;1.10;;;10.70;98.20;;;;;;4903203;29;20473;-85
2024/04/01 05:12:12;;;;;;;1.50;1.00;;;10.70;98.20;;;;;;4890887;29;20478;-85
2024/04/01 05:14:48;;;;;;;1.50;1.10;;;10.70;98.20;;;;;;4903999;29;21009;-85
2024/04/01 05:17:16;;;;;;;1.50;1.10;;;10.70;98.20;;;;;;4897336;29;20548;-86
2024/04/01 05:19:46;;;;;;;1.50;1.10;;;10.70;98.20;;;;;;4904986;29;20465;-85
2024/04/01 05:22:30;;;;;;;1.50;1.10;;;10.70;98.20;;;;;;4900527;29;20568;-85
2024/04/01 05:24:56;;;;;;;1.50;1.10;;;10.80;98.20;;;;;;4908145;29;20525;-86
2024/04/01 05:27:27;;;;;;;1.50;1.10;;;10.80;98.20;;;;;;4895425;29;20988;-85
2024/04/01 05:30:04;;;;;;;1.50;1.20;;;10.80;98.20;;;;;;4914388;29;20484;-85
2024/04/01 05:32:31;;;;;;;1.50;1.10;;;10.80;98.20;;;;;;4908897;29;20468;-86
2024/04/01 05:35:05;;;;;;;1.50;1.03;;;10.80;98.20;;;;;;4920934;29;20506;-86
2024/04/01 05:37:33;;;;;;;1.50;1.10;;;10.90;98.20;;;;;;4909758;29;20481;-86
2024/04/01 05:40:00;;;;;;;1.50;1.00;;;10.90;98.20;;;;;;4915564;29;20472;-86
2024/04/01 05:42:27;;;;;;;1.47;1.10;;;10.80;98.20;;;;;;4908694;29;20486;-86
2024/04/01 05:44:53;;;;;;;1.50;1.10;;;10.90;98.20;;;;;;4908971;29;20488;-86
2024/04/01 05:47:20;;;;;;;1.47;1.07;;;10.90;98.20;;;;;;4909519;29;21141;-86
2024/04/01 05:50:06;;;;;;;1.50;1.20;;;10.90;98.20;;;;;;4907882;29;20476;-86
2024/04/01 05:55:38;;;;;;;1.50;1.10;;;10.90;98.20;;;;;;4912072;29;20456;-87
2024/04/01 05:58:04;;;;;;;1.50;1.10;;;10.90;98.20;;;;;;4908099;29;20902;-86
2024/04/01 06:00:31;;;;;;;1.50;1.10;;;10.90;98.20;;;;;;4908011;29;20461;-86
2024/04/01 06:03:06;;;;;;;1.50;1.10;;;10.90;98.20;;;;;;4888755;29;20708;-87
2024/04/01 06:08:29;;;;;;;1.50;1.20;;;10.90;98.20;;;;;;4885025;29;20460;-85
2024/04/01 06:10:55;;;;;;;1.50;1.00;;;10.90;98.20;;;;;;4902889;29;20468;-85
2024/04/01 06:13:22;;;;;;;1.50;1.00;;;10.90;98.20;;;;;;4918896;29;20536;-84
2024/04/01 06:15:47;;;;;;;1.50;1.10;;;10.80;98.20;;;;;;4907613;29;20284;-83
2024/04/01 06:18:14;;;;;;;1.50;1.10;;;10.80;98.20;;;;;;4902072;29;20500;-84
2024/04/01 06:21:31;;;;;;;1.50;1.00;;;10.80;98.20;;;;;;4896860;29;20247;-83
2024/04/01 06:23:59;;;;;;;1.50;1.10;;;10.80;98.20;;;;;;4881194;29;20556;-83
2024/04/01 06:26:26;;;;;;;1.50;1.10;;;10.80;98.20;;;;;;4892952;29;20484;-83
2024/04/01 06:28:57;;;;;;;1.50;1.20;;;10.80;98.20;;;;;;4895229;29;20480;-83
2024/04/01 06:31:40;;;;;;;1.50;1.10;;;10.80;98.20;;;;;;4887471;29;20491;-83
2024/04/01 06:34:07;;;;;;;1.50;1.07;;;10.80;98.20;;;;;;4893247;29;20558;-84
2024/04/01 06:36:49;;;;;;;;;;;;;;;;;;;;;
2024/04/01 06:39:17;;;;;;;1.50;1.10;;;10.80;98.20;;;;;;4900840;29;20517;-84
2024/04/01 06:41:43;;;;;;;1.50;1.10;;;10.80;98.20;;;;;;4891504;29;20600;-83
2024/04/01 06:44:10;;;;;;;1.50;1.10;;;10.80;98.20;;;;;;4897786;29;20521;-83
2024/04/01 06:46:36;;;;;;;1.50;1.00;;;10.80;98.20;;;;;;4889720;29;20674;-83
2024/04/01 06:49:03;;;;;;;1.50;1.10;;;10.80;98.20;;;;;;4899818;29;20473;-82
2024/04/01 06:51:29;;;;;;;1.50;1.10;;;10.80;98.20;;;;;;4891583;29;20228;-84
2024/04/01 06:53:57;;;;;;;1.50;1.00;;;10.80;98.20;;;;;;4890065;29;20902;-82
2024/04/01 06:56:24;;;;;;;1.50;1.10;;;10.80;98.20;;;;;;4886770;29;20992;-82
2024/04/01 06:59:10;;;;;;;1.50;1.10;;;10.80;98.20;;;;;;4890591;29;20593;-82
2024/04/01 07:01:37;;;;;;;1.50;1.00;;;10.80;98.20;;;;;;4888676;29;20957;-82
2024/04/01 07:04:04;;;;;;;1.50;1.00;;;10.80;98.20;;;;;;4896435;29;20497;-82
2024/04/01 07:06:55;;;;;;;1.50;1.07;;;10.80;98.20;;;;;;4888282;29;20865;-82
2024/04/01 07:09:20;;;;;;;1.50;1.10;;;10.80;98.20;;;;;;4900109;29;20976;-81
2024/04/01 07:11:56;;;;;;;1.50;1.10;;;10.90;98.20;;;;;;4886658;29;20473;-82
2024/04/01 07:14:31;;;;;;;1.50;1.10;;;10.90;98.20;;;;;;4895807;29;20213;-82
2024/04/01 07:17:56;;;;;;;1.50;1.30;;;10.90;98.20;;;;;;4890081;29;20513;-82
2024/04/01 07:20:34;;;;;;;1.50;1.07;;;10.90;98.20;;;;;;4890214;29;20477;-82
2024/04/01 07:23:34;;;;;;;1.50;1.10;;;10.90;98.20;;;;;;4891019;29;20489;-82
2024/04/01 07:26:00;;;;;;;1.47;1.00;;;10.90;98.20;;;;;;4889059;29;20525;-83
2024/04/01 07:28:28;;;;;;;1.50;1.10;;;11.00;98.20;;;;;;4898752;29;20507;-82
2024/04/01 07:31:12;;;;;;;1.50;1.10;;;11.00;98.20;;;;;;4878251;29;20221;-82
2024/04/01 07:33:39;;;;;;;1.50;1.10;;;11.00;98.20;;;;;;4902846;29;20464;-83
2024/04/01 07:36:44;;;;;;;1.50;1.03;;;11.00;98.20;;;;;;4889667;29;21181;-82
2024/04/01 07:39:11;;;;;;;1.50;1.10;;;11.10;98.20;;;;;;4879650;29;20500;-82
2024/04/01 07:41:37;;;;;;;1.50;1.10;;;11.00;98.20;;;;;;4889266;29;20480;-84
2024/04/01 07:44:05;;;;;;;1.50;1.00;;;11.00;98.20;;;;;;4896433;29;20494;-83
2024/04/01 07:46:31;;;;;;;1.50;1.00;;;11.10;98.20;;;;;;4881094;29;20235;-84
2024/04/01 07:48:58;;;;;;;1.50;1.00;;;11.10;98.20;;;;;;4895666;29;20469;-84
2024/04/01 07:51:24;;;;;;;1.50;1.10;;;11.10;98.20;;;;;;4891824;29;20871;-84
2024/04/01 07:53:51;;;;;;;1.50;1.00;;;11.10;98.20;;;;;;4898618;29;20553;-84
2024/04/01 07:56:16;;;;;;;1.50;1.20;;;11.20;98.20;;;;;;4891703;29;20240;-83
2024/04/01 07:58:43;;;;;;;1.50;1.10;;;11.20;98.20;;;;;;4896233;29;20481;-83
2024/04/01 08:01:10;;;;;;;1.50;1.10;;;11.20;98.20;;;;;;4893723;29;20315;-84
2024/04/01 08:03:40;;;;;;;1.43;1.03;;;11.20;98.20;;;;;;4899456;29;20973;-84
2024/04/01 08:06:06;;;;;;;1.50;1.10;;;11.10;98.20;;;;;;4885682;29;21147;-84
2024/04/01 08:08:33;;;;;;;1.50;1.10;;;11.10;98.20;;;;;;4896308;29;20506;-84
2024/04/01 08:10:59;;;;;;;1.50;1.10;;;11.10;98.20;;;;;;4892630;29;20497;-84
2024/04/01 08:13:26;;;;;;;1.50;1.10;;;11.10;98.20;;;;;;4906648;29;20466;-84
2024/04/01 08:16:01;;;;;;;1.50;1.20;;;11.10;98.20;;;;;;4891634;29;20234;-84
2024/04/01 08:18:30;;;;;;;1.50;1.10;;;11.10;98.20;;;;;;4897425;29;20472;-83
2024/04/01 08:21:01;;;;;;;1.47;1.00;;;11.10;98.20;;;;;;4889097;29;20494;-84
2024/04/01 08:23:29;;;;;;;1.50;1.00;;;11.10;98.20;;;;;;4897473;29;21095;-84
2024/04/01 08:25:54;;;;;;;1.50;1.00;;;11.10;98.20;;;;;;4894717;29;20480;-84
2024/04/01 08:28:21;;;;;;;1.50;1.10;;;11.00;98.20;;;;;;4897515;29;20474;-84
2024/04/01 08:30:47;;;;;;;1.50;1.10;;;11.00;98.20;;;;;;4886996;29;20223;-83
2024/04/01 08:33:16;;;;;;;1.50;1.10;;;11.00;98.20;;;;;;4904317;29;20996;-83
2024/04/01 08:35:43;;;;;;;1.50;1.10;;;11.00;98.20;;;;;;4891850;29;20220;-84
2024/04/01 08:38:10;;;;;;;1.50;1.20;;;11.10;98.20;;;;;;4900415;29;20592;-83
2024/04/01 08:40:43;;;;;;;1.50;1.10;;;11.10;98.20;;;;;;4895164;29;20965;-84
2024/04/01 08:43:13;;;;;;;1.50;1.00;;;11.10;98.20;;;;;;4891589;29;20989;-83
2024/04/01 08:45:42;;;;;;;1.50;0.97;;;11.10;98.20;;;;;;4898222;29;21143;-85
2024/04/01 08:48:12;;;;;;;1.47;1.00;;;11.10;98.20;;;;;;4886900;29;20855;-84
2024/04/01 08:50:51;;;;;;;1.50;1.00;;;11.10;98.20;;;;;;4904616;29;20465;-84
2024/04/01 08:53:27;;;;;;;1.50;1.10;;;11.10;98.20;;;;;;4880840;29;20469;-85
2024/04/01 08:56:05;;;;;;;1.50;1.00;;;11.10;98.20;;;;;;4889012;29;20473;-83
2024/04/01 08:58:37;;;;;;;1.50;1.00;;;11.10;98.20;;;;;;4903611;29;20473;-83
2024/04/01 09:01:04;;;;;;;1.50;1.00;;;11.10;98.20;;;;;;4876949;29;21027;-83
2024/04/01 09:03:30;;;;;;;1.50;1.00;;;11.10;98.20;;;;;;4898693;29;20574;-84
2024/04/01 09:05:58;;;;;;;1.50;1.00;;;11.10;98.20;;;;;;4880982;29;20569;-83
2024/04/01 09:08:24;;;;;;;1.50;1.03;;;11.10;98.20;;;;;;4894753;29;20224;-83
2024/04/01 09:10:52;;;;;;;1.50;1.10;;;11.10;98.20;;;;;;4884056;29;20473;-83
2024/04/01 09:13:20;;;;;;;1.50;1.10;;;11.10;98.20;;;;;;4903829;29;20564;-83
2024/04/01 09:15:49;;;;;;;1.50;1.10;;;11.10;98.20;;;;;;4892187;29;20501;-84
2024/04/01 09:18:16;;;;;;;1.50;1.00;;;11.10;98.20;;;;;;4901016;29;20480;-83
2024/04/01 09:20:53;;;;;;;1.50;1.10;;;11.10;98.20;;;;;;4896677;29;20501;-84
2024/04/01 09:23:20;;;;;;;1.50;1.10;;;11.10;98.20;;;;;;4884598;29;20548;-82
2024/04/01 09:25:47;;;;;;;1.50;1.10;;;11.10;98.20;;;;;;4896076;29;20533;-83
2024/04/01 09:28:13;;;;;;;1.50;1.10;;;11.10;98.20;;;;;;4891552;29;20482;-83
2024/04/01 09:30:40;;;;;;;1.50;1.03;;;11.10;98.20;;;;;;4882017;29;20478;-83
2024/04/01 09:33:07;;;;;;;1.47;1.00;;;11.10;98.20;;;;;;4889632;29;20308;-82
2024/04/01 09:35:34;;;;;;;1.50;1.10;;;11.20;98.20;;;;;;4893171;29;20517;-83
2024/04/01 09:38:00;;;;;;;1.50;1.00;;;11.20;98.20;;;;;;4915989;23;20504;-77
2024/04/01 09:40:28;;;;;;;1.50;1.10;;;11.20;98.20;;;;;;4893784;29;20569;-76
2024/04/01 09:42:58;;;;;;;1.50;1.10;;;11.20;98.20;;;;;;4884050;29;20240;-78
2024/04/01 09:45:25;;;;;;;1.50;1.10;;;11.20;98.20;;;;;;4891914;29;20560;-77
2024/04/01 09:47:53;;;;;;;1.50;1.00;;;11.20;98.20;;;;;;4878054;29;20899;-78
2024/04/01 09:50:21;;;;;;;1.50;1.00;;;11.30;98.20;;;;;;4873752;29;20523;-77
2024/04/01 09:52:47;;;;;;;1.50;1.00;;;11.40;98.20;;;;;;4879529;29;20499;-77
2024/04/01 09:55:20;;;;;;;1.50;1.00;;;11.50;98.20;;;;;;4872752;29;21037;-77
2024/04/01 09:58:12;;;;;;;1.50;1.00;;;11.50;98.20;;;;;;4877142;29;20241;-77
2024/04/01 10:00:51;;;;;;;1.93;1.77;;;11.60;98.20;;;;;;4872694;29;20506;-78
2024/04/01 10:03:54;;;;;;;1.50;1.17;;;11.60;98.20;;;;;;4852671;29;20493;-78
2024/04/01 10:07:06;;;;;;;1.50;1.00;;;11.70;98.20;;;;;;4863952;29;20559;-77
2024/04/01 10:10:17;;;;;;;1.50;1.10;;;11.70;98.20;;;;;;4880523;29;20489;-78
2024/04/01 10:13:23;;;;;;;1.43;0.97;;;11.80;98.20;;;;;;4876491;29;20480;-77
2024/04/01 10:16:15;;;;;;;1.50;1.00;;;12.00;98.20;;;;;;4865509;29;20505;-78
2024/04/01 10:19:11;;;;;;;1.50;1.00;;;12.10;98.20;;;;;;4875734;29;20520;-78
2024/04/01 10:22:06;;;;;;;1.50;1.00;;;12.10;98.20;;;;;;4872181;29;20560;-78
2024/04/01 10:25:06;;;;;;;1.50;1.00;;;12.20;98.20;;;;;;4866761;29;20581;-77
2024/04/01 10:27:55;;;;;;;1.50;1.00;;;12.10;98.20;;;;;;4878052;29;20553;-77
2024/04/01 10:30:43;;;;;;;1.47;1.00;;;12.10;98.20;;;;;;4873902;29;20634;-78
2024/04/01 10:33:43;;;;;;;1.50;1.00;;;12.10;98.20;;;;;;4878247;29;20859;-78
2024/04/01 10:36:22;;;;;;;1.50;1.07;;;12.10;98.20;;;;;;4864700;29;20679;-78
2024/04/01 10:39:34;;;;;;;1.50;1.00;;;12.10;98.20;;;;;;4889286;29;20494;-78
2024/04/01 10:42:30;;;;;;;1.50;1.00;;;12.10;98.20;;;;;;4877764;29;20500;-77
2024/04/01 10:45:27;;;;;;;1.50;1.00;;;12.20;98.20;;;;;;4880368;29;20490;-78
2024/04/01 10:48:14;;;;;;;1.50;1.00;;;12.20;98.20;;;;;;4879943;29;20481;-79
2024/04/01 10:51:16;;;;;;;1.50;1.00;;;12.30;98.20;;;;;;4874788;29;20467;-78
2024/04/01 10:53:58;;;;;;;1.50;1.00;;;12.30;98.20;;;;;;4825675;29;20530;-79
2024/04/01 10:57:12;;;;;;;1.50;1.00;;;12.30;98.20;;;;;;4869673;29;20556;-78
2024/04/01 11:00:18;;;;;;;1.50;1.17;;;12.40;98.20;;;;;;4878458;29;20491;-79
2024/04/01 11:03:47;;;;;;;1.50;1.00;;;12.50;98.20;;;;;;4862650;29;21138;-78
2024/04/01 11:06:34;;;;;;;1.50;1.10;;;12.60;98.20;;;;;;4868085;29;20477;-78
2024/04/01 11:09:15;;;;;;;1.50;1.00;;;12.60;98.20;;;;;;4884058;29;20501;-78
2024/04/01 11:11:55;;;;;;;1.50;1.00;;;12.60;98.20;;;;;;4869813;29;20548;-81
2024/04/01 11:14:22;;;;;;;1.50;1.00;;;12.60;98.20;;;;;;4881073;29;20466;-80
2024/04/01 11:16:54;;;;;;;1.50;1.10;;;12.60;98.20;;;;;;4872572;29;20564;-79
2024/04/01 11:19:45;;;;;;;1.50;0.90;;;12.70;98.20;;;;;;4879720;29;20509;-80
2024/04/01 11:22:25;;;;;;;1.50;1.00;;;12.70;98.20;;;;;;4874606;29;20633;-80
2024/04/01 11:25:11;;;;;;;1.50;1.10;;;12.80;98.20;;;;;;4877712;29;20905;-79
2024/04/01 11:28:13;;;;;;;1.50;1.00;;;12.90;98.20;;;;;;4877083;29;20514;-79
2024/04/01 11:30:39;;;;;;;1.50;0.90;;;12.90;98.20;;;;;;4872122;29;20470;-79
2024/04/01 11:33:10;;;;;;;1.50;1.00;;;12.90;98.20;;;;;;4861776;29;20849;-80
2024/04/01 11:35:45;;;;;;;1.50;1.10;;;12.90;98.20;;;;;;4877420;29;20486;-79
2024/04/01 11:38:24;;;;;;;1.50;1.00;;;12.90;98.20;;;;;;4879780;29;20696;-78
2024/04/01 11:40:52;;;;;;;1.50;1.00;;;12.90;98.20;;;;;;4866011;29;20561;-79
2024/04/01 11:43:22;;;;;;;1.50;1.00;;;12.90;98.20;;;;;;4887169;29;20498;-79
2024/04/01 11:45:50;;;;;;;1.50;1.00;;;12.90;98.20;;;;;;4862235;29;21057;-79
2024/04/01 11:48:19;;;;;;;1.50;1.00;;;13.00;98.20;;;;;;4889861;29;20557;-79
2024/04/01 11:50:49;;;;;;;1.50;1.00;;;12.90;98.20;;;;;;4873060;29;20477;-79
2024/04/01 11:53:17;;;;;;;1.50;1.00;;;12.90;98.20;;;;;;4850575;29;20476;-80
2024/04/01 11:55:51;;;;;;;1.47;1.00;;;12.80;98.20;;;;;;4875271;29;20501;-80
2024/04/01 11:58:19;;;;;;;1.50;1.10;;;12.80;98.20;;;;;;4847042;29;20501;-80
2024/04/01 12:00:52;;;;;;;1.50;1.00;;;12.80;98.20;;;;;;4875746;29;20549;-79
2024/04/01 12:03:21;;;;;;;1.50;1.00;;;12.80;98.20;;;;;;4846333;29;21238;-77
2024/04/01 12:05:48;;;;;;;1.50;1.00;;;12.80;98.20;;;;;;4866629;29;20485;-78
2024/04/01 12:08:25;;;;;;;1.50;1.00;;;12.80;98.20;;;;;;4886676;29;20558;-78
2024/04/01 12:10:52;;;;;;;1.50;1.00;;;12.80;98.20;;;;;;4861255;29;20470;-78
2024/04/01 12:13:27;;;;;;;1.50;1.00;;;12.70;98.20;;;;;;4870961;29;20546;-79
2024/04/01 12:15:54;;;;;;;1.50;1.07;;;12.70;98.20;;;;;;4873910;29;20481;-79
2024/04/01 12:18:23;;;;;;;1.50;1.00;;;12.70;98.20;;;;;;4884777;29;20800;-78
2024/04/01 12:20:52;;;;;;;1.50;1.00;;;12.70;98.20;;;;;;4862773;29;20509;-79
2024/04/01 12:23:25;;;;;;;1.50;1.00;;;12.80;98.20;;;;;;4884312;29;20475;-80
2024/04/01 12:25:51;;;;;;;1.47;0.93;;;12.90;98.20;;;;;;4863254;29;20478;-80
2024/04/01 12:28:19;;;;;;;1.50;1.00;;;12.90;98.20;;;;;;4888103;29;20581;-78
2024/04/01 12:30:51;;;;;;;1.50;0.90;;;12.90;98.20;;;;;;4871655;29;20474;-79
2024/04/01 12:33:20;;;;;;;1.50;1.00;;;13.00;98.20;;;;;;4847354;29;20478;-79
2024/04/01 12:35:56;;;;;;;1.50;1.00;;;13.00;98.20;;;;;;4867483;29;20471;-79
2024/04/01 12:38:25;;;;;;;1.50;1.00;;;13.00;98.20;;;;;;4884897;29;20494;-80
2024/04/01 12:40:51;;;;;;;1.50;1.00;;;13.00;98.20;;;;;;4863790;29;20949;-77
2024/04/01 12:43:21;;;;;;;1.47;0.90;;;13.00;98.20;;;;;;4890368;29;20591;-80
2024/04/01 12:45:51;;;;;;;1.50;1.00;;;12.90;98.20;;;;;;4867453;29;20962;-79
2024/04/01 12:48:20;;;;;;;1.50;1.00;;;12.90;98.20;;;;;;4869202;29;20494;-77
2024/04/01 12:50:49;;;;;;;1.50;1.00;;;12.90;98.20;;;;;;4868064;29;21084;-78
2024/04/01 12:53:48;;;;;;;1.50;1.10;;;12.80;98.20;;;;;;4885015;29;20558;-79
2024/04/01 12:56:30;;;;;;;1.50;1.00;;;12.80;98.20;;;;;;4862263;29;20883;-81
2024/04/01 12:59:11;;;;;;;1.60;1.47;;;12.80;98.20;;;;;;4869568;29;20534;-79
2024/04/01 13:01:51;;;;;;;1.43;1.00;;;12.80;98.20;;;;;;4864920;29;20890;-79
2024/04/01 13:04:39;;;;;;;1.50;1.00;;;12.70;98.20;;;;;;4873082;29;20498;-78
2024/04/01 13:07:17;;;;;;;1.50;1.00;;;12.70;98.20;;;;;;4870077;29;20490;-78
2024/04/01 13:10:01;;;;;;;1.50;1.03;;;12.70;98.20;;;;;;4893947;29;20483;-81
2024/04/01 13:12:45;;;;;;;1.50;1.10;;;12.70;98.20;;;;;;4873220;29;20547;-77
2024/04/01 13:15:21;;;;;;;1.43;1.00;;;12.70;98.20;;;;;;4871919;29;20497;-79
2024/04/01 13:17:58;;;;;;;1.50;1.10;;;12.70;98.20;;;;;;4858613;29;20524;-78
2024/04/01 13:20:34;;;;;;;1.50;1.00;;;12.70;98.20;;;;;;4870885;29;20470;-78